sensor_id;sensor_type;location;lat;lon;timestamp;pressure;altitude;pressure_sealevel;temperature;humidity
141;BME280;65;48.778;9.160;2023-04-21T00:00:03;98188.72;;;4.61;100.00
141;BME280;65;48.778;9.160;2023-04-21T00:02:52;98188.56;;;4.66;100.00
141;BME280;65;48.778;9.160;2023-04-21T00:05:37;98193.91;;;4.63;100.00
141;BME280;65;48.778;9.160;2023-04-21T00:08:26;98194.72;;;4.65;100.00
141;BME280;65;48.778;9.160;2023-04-21T00:11:12;98188.56;;;4.66;100.00
141;BME280;65;48.778;9.160;2023-04-21T00:13:59;98185.16;;;4.64;100.00
141;BME280;65;48.778;9.160;2023-04-21T00:16:45;98189.41;;;4.66;100.00
141;BME280;65;48.778;9.160;2023-04-21T00:19:31;98193.56;;;4.72;100.00
141;BME280;65;48.778;9.160;2023-04-21T00:22:16;98191.97;;;4.68;100.00
141;BME280;65;48.778;9.160;2023-04-21T00:25:03;98198.06;;;4.68;100.00
141;BME280;65;48.778;9.160;2023-04-21T00:27:49;98185.75;;;4.70;100.00
141;BME280;65;48.778;9.160;2023-04-21T00:30:35;98186.66;;;4.69;100.00
141;BME280;65;48.778;9.160;2023-04-21T00:33:21;98184.06;;;4.69;100.00
141;BME280;65;48.778;9.160;2023-04-21T00:36:07;98177.00;;;4.71;100.00
141;BME280;65;48.778;9.160;2023-04-21T00:38:53;98182.97;;;4.75;100.00
141;BME280;65;48.778;9.160;2023-04-21T00:41:38;98181.97;;;4.78;100.00
141;BME280;65;48.778;9.160;2023-04-21T00:44:25;98178.44;;;4.79;100.00
141;BME280;65;48.778;9.160;2023-04-21T00:47:11;98173.88;;;4.84;100.00
141;BME280;65;48.778;9.160;2023-04-21T00:49:57;98172.06;;;4.86;100.00
141;BME280;65;48.778;9.160;2023-04-21T00:52:43;98167.72;;;4.85;100.00
141;BME280;65;48.778;9.160;2023-04-21T00:55:31;98166.16;;;4.81;100.00
141;BME280;65;48.778;9.160;2023-04-21T00:58:17;98168.09;;;4.75;100.00
141;BME280;65;48.778;9.160;2023-04-21T01:01:03;98168.94;;;4.76;100.00
141;BME280;65;48.778;9.160;2023-04-21T01:03:50;98167.50;;;4.69;100.00
141;BME280;65;48.778;9.160;2023-04-21T01:06:36;98166.84;;;4.64;100.00
141;BME280;65;48.778;9.160;2023-04-21T01:09:22;98166.06;;;4.60;100.00
141;BME280;65;48.778;9.160;2023-04-21T01:12:10;98164.66;;;4.52;100.00
141;BME280;65;48.778;9.160;2023-04-21T01:14:56;98158.81;;;4.45;100.00
141;BME280;65;48.778;9.160;2023-04-21T01:17:42;98154.69;;;4.39;100.00
141;BME280;65;48.778;9.160;2023-04-21T01:20:27;98156.69;;;4.33;100.00
141;BME280;65;48.778;9.160;2023-04-21T01:23:14;98146.47;;;4.27;100.00
141;BME280;65;48.778;9.160;2023-04-21T01:25:59;98150.91;;;4.25;100.00
141;BME280;65;48.778;9.160;2023-04-21T01:28:46;98148.47;;;4.20;100.00
141;BME280;65;48.778;9.160;2023-04-21T01:31:33;98148.41;;;4.22;100.00
141;BME280;65;48.778;9.160;2023-04-21T01:34:18;98152.00;;;4.19;100.00
141;BME280;65;48.778;9.160;2023-04-21T01:37:13;98152.13;;;4.16;100.00
141;BME280;65;48.778;9.160;2023-04-21T01:40:02;98160.88;;;4.15;100.00
141;BME280;65;48.778;9.160;2023-04-21T01:42:49;98160.13;;;4.11;100.00
141;BME280;65;48.778;9.160;2023-04-21T01:45:35;98156.84;;;4.06;100.00
141;BME280;65;48.778;9.160;2023-04-21T01:48:21;98157.03;;;4.00;100.00
141;BME280;65;48.778;9.160;2023-04-21T01:51:06;98154.59;;;3.96;100.00
141;BME280;65;48.778;9.160;2023-04-21T01:53:52;98155.69;;;3.90;100.00
141;BME280;65;48.778;9.160;2023-04-21T01:56:38;98158.34;;;3.89;100.00
141;BME280;65;48.778;9.160;2023-04-21T01:59:23;98158.53;;;3.84;100.00
141;BME280;65;48.778;9.160;2023-04-21T02:02:09;98163.06;;;3.79;100.00
141;BME280;65;48.778;9.160;2023-04-21T02:04:55;98157.94;;;3.76;100.00
141;BME280;65;48.778;9.160;2023-04-21T02:07:42;98155.34;;;3.76;100.00
141;BME280;65;48.778;9.160;2023-04-21T02:10:28;98158.00;;;3.74;100.00
141;BME280;65;48.778;9.160;2023-04-21T02:13:13;98155.50;;;3.71;100.00
141;BME280;65;48.778;9.160;2023-04-21T02:15:59;98151.25;;;3.69;100.00
141;BME280;65;48.778;9.160;2023-04-21T02:18:46;98147.03;;;3.65;100.00
141;BME280;65;48.778;9.160;2023-04-21T02:21:32;98156.59;;;3.66;100.00
141;BME280;65;48.778;9.160;2023-04-21T02:24:18;98150.66;;;3.61;100.00
141;BME280;65;48.778;9.160;2023-04-21T02:27:04;98156.69;;;3.63;100.00
141;BME280;65;48.778;9.160;2023-04-21T02:29:50;98155.09;;;3.59;100.00
141;BME280;65;48.778;9.160;2023-04-21T02:32:36;98150.00;;;3.56;100.00
141;BME280;65;48.778;9.160;2023-04-21T02:35:21;98147.53;;;3.51;100.00
141;BME280;65;48.778;9.160;2023-04-21T02:38:07;98147.44;;;3.54;100.00
141;BME280;65;48.778;9.160;2023-04-21T02:40:53;98150.09;;;3.53;100.00
141;BME280;65;48.778;9.160;2023-04-21T02:43:39;98165.16;;;3.44;100.00
141;BME280;65;48.778;9.160;2023-04-21T02:46:24;98165.25;;;3.41;100.00
141;BME280;65;48.778;9.160;2023-04-21T02:49:10;98166.91;;;3.44;100.00
141;BME280;65;48.778;9.160;2023-04-21T02:51:57;98166.06;;;3.43;100.00
141;BME280;65;48.778;9.160;2023-04-21T02:54:42;98166.06;;;3.43;100.00
141;BME280;65;48.778;9.160;2023-04-21T02:57:28;98173.16;;;3.40;100.00
141;BME280;65;48.778;9.160;2023-04-21T03:00:14;98163.56;;;3.40;100.00
141;BME280;65;48.778;9.160;2023-04-21T03:03:00;98155.72;;;3.40;100.00
141;BME280;65;48.778;9.160;2023-04-21T03:05:46;98154.88;;;3.40;100.00
141;BME280;65;48.778;9.160;2023-04-21T03:08:31;98160.91;;;3.42;100.00
141;BME280;65;48.778;9.160;2023-04-21T03:11:17;98167.59;;;3.51;100.00
141;BME280;65;48.778;9.160;2023-04-21T03:14:03;98154.41;;;3.54;100.00
141;BME280;65;48.778;9.160;2023-04-21T03:16:48;98145.63;;;3.56;100.00
141;BME280;65;48.778;9.160;2023-04-21T03:19:34;98137.44;;;3.65;100.00
141;BME280;65;48.778;9.160;2023-04-21T03:22:20;98135.63;;;3.67;100.00
141;BME280;65;48.778;9.160;2023-04-21T03:25:06;98139.94;;;3.68;100.00
141;BME280;65;48.778;9.160;2023-04-21T03:27:55;98137.50;;;3.64;100.00
141;BME280;65;48.778;9.160;2023-04-21T03:30:41;98137.44;;;3.65;100.00
141;BME280;65;48.778;9.160;2023-04-21T03:33:26;98142.59;;;3.67;100.00
141;BME280;65;48.778;9.160;2023-04-21T03:36:12;98146.69;;;3.74;100.00
141;BME280;65;48.778;9.160;2023-04-21T03:38:58;98143.25;;;3.73;100.00
141;BME280;65;48.778;9.160;2023-04-21T03:41:44;98136.31;;;3.72;100.00
141;BME280;65;48.778;9.160;2023-04-21T03:44:30;98141.53;;;3.72;100.00
141;BME280;65;48.778;9.160;2023-04-21T03:47:15;98135.34;;;3.75;100.00
141;BME280;65;48.778;9.160;2023-04-21T03:50:05;98138.63;;;3.80;100.00
141;BME280;65;48.778;9.160;2023-04-21T03:52:51;98142.03;;;3.82;100.00
141;BME280;65;48.778;9.160;2023-04-21T03:55:36;98150.63;;;3.86;100.00
141;BME280;65;48.778;9.160;2023-04-21T03:58:22;98132.31;;;3.86;100.00
141;BME280;65;48.778;9.160;2023-04-21T04:01:08;98141.88;;;3.87;100.00
141;BME280;65;48.778;9.160;2023-04-21T04:03:54;98147.03;;;3.88;100.00
141;BME280;65;48.778;9.160;2023-04-21T04:06:40;98147.78;;;3.92;100.00
141;BME280;65;48.778;9.160;2023-04-21T04:09:26;98148.69;;;3.91;100.00
141;BME280;65;48.778;9.160;2023-04-21T04:12:12;98144.25;;;3.93;100.00
141;BME280;65;48.778;9.160;2023-04-21T04:14:57;98145.97;;;3.94;100.00
141;BME280;65;48.778;9.160;2023-04-21T04:17:43;98151.97;;;3.96;100.00
141;BME280;65;48.778;9.160;2023-04-21T04:20:29;98144.94;;;3.98;100.00
141;BME280;65;48.778;9.160;2023-04-21T04:23:14;98145.72;;;4.00;100.00
141;BME280;65;48.778;9.160;2023-04-21T04:26:00;98148.28;;;4.01;100.00
141;BME280;65;48.778;9.160;2023-04-21T04:28:49;98155.34;;;3.99;100.00
141;BME280;65;48.778;9.160;2023-04-21T04:31:35;98157.84;;;4.02;100.00
141;BME280;65;48.778;9.160;2023-04-21T04:34:20;98151.63;;;4.06;100.00
141;BME280;65;48.778;9.160;2023-04-21T04:37:07;98155.88;;;4.09;100.00
141;BME280;65;48.778;9.160;2023-04-21T04:39:55;98150.69;;;4.07;100.00
141;BME280;65;48.778;9.160;2023-04-21T04:42:41;98154.22;;;4.06;100.00
141;BME280;65;48.778;9.160;2023-04-21T04:45:27;98150.69;;;4.07;100.00
141;BME280;65;48.778;9.160;2023-04-21T04:48:15;98142.75;;;4.10;100.00
141;BME280;65;48.778;9.160;2023-04-21T04:51:01;98148.59;;;4.17;100.00
141;BME280;65;48.778;9.160;2023-04-21T04:53:47;98152.84;;;4.20;100.00
141;BME280;65;48.778;9.160;2023-04-21T04:56:33;98158.63;;;4.28;100.00
141;BME280;65;48.778;9.160;2023-04-21T04:59:18;98158.41;;;4.34;100.00
141;BME280;65;48.778;9.160;2023-04-21T05:02:06;98162.34;;;4.44;100.00
141;BME280;65;48.778;9.160;2023-04-21T05:04:52;98170.38;;;4.61;100.00
141;BME280;65;48.778;9.160;2023-04-21T05:07:37;98169.88;;;4.75;100.00
141;BME280;65;48.778;9.160;2023-04-21T05:10:23;98185.25;;;4.83;100.00
141;BME280;65;48.778;9.160;2023-04-21T05:13:09;98187.38;;;4.95;100.00
141;BME280;65;48.778;9.160;2023-04-21T05:15:59;98191.47;;;5.02;100.00
141;BME280;65;48.778;9.160;2023-04-21T05:18:46;98180.72;;;5.08;100.00
141;BME280;65;48.778;9.160;2023-04-21T05:21:38;98183.88;;;5.16;100.00
141;BME280;65;48.778;9.160;2023-04-21T05:24:23;98186.28;;;5.22;100.00
141;BME280;65;48.778;9.160;2023-04-21T05:27:09;98189.56;;;5.27;100.00
141;BME280;65;48.778;9.160;2023-04-21T05:30:20;98187.06;;;5.24;100.00
141;BME280;65;48.778;9.160;2023-04-21T05:33:06;98186.13;;;5.25;100.00
141;BME280;65;48.778;9.160;2023-04-21T05:35:51;98188.50;;;5.31;100.00
141;BME280;65;48.778;9.160;2023-04-21T05:38:37;98193.75;;;5.31;100.00
141;BME280;65;48.778;9.160;2023-04-21T05:41:23;98201.47;;;5.34;100.00
141;BME280;65;48.778;9.160;2023-04-21T05:44:09;98200.94;;;5.47;100.00
141;BME280;65;48.778;9.160;2023-04-21T05:46:55;98204.63;;;5.63;100.00
141;BME280;65;48.778;9.160;2023-04-21T05:49:41;98204.09;;;5.75;100.00
141;BME280;65;48.778;9.160;2023-04-21T05:52:30;98195.97;;;5.81;100.00
141;BME280;65;48.778;9.160;2023-04-21T05:55:16;98184.13;;;5.93;100.00
141;BME280;65;48.778;9.160;2023-04-21T05:58:01;98182.50;;;5.90;100.00
141;BME280;65;48.778;9.160;2023-04-21T06:00:48;98181.28;;;5.97;100.00
141;BME280;65;48.778;9.160;2023-04-21T06:03:34;98184.78;;;6.17;100.00
141;BME280;65;48.778;9.160;2023-04-21T06:06:20;98182.31;;;6.32;100.00
141;BME280;65;48.778;9.160;2023-04-21T06:09:06;98173.38;;;6.55;100.00
141;BME280;65;48.778;9.160;2023-04-21T06:11:52;98173.13;;;6.79;100.00
141;BME280;65;48.778;9.160;2023-04-21T06:14:38;98173.03;;;6.99;100.00
141;BME280;65;48.778;9.160;2023-04-21T06:17:23;98157.72;;;7.24;100.00
141;BME280;65;48.778;9.160;2023-04-21T06:20:09;98152.72;;;7.54;100.00
141;BME280;65;48.778;9.160;2023-04-21T06:22:56;98157.78;;;7.75;100.00
141;BME280;65;48.778;9.160;2023-04-21T06:25:41;98174.25;;;7.78;100.00
141;BME280;65;48.778;9.160;2023-04-21T06:28:27;98170.69;;;7.79;100.00
141;BME280;65;48.778;9.160;2023-04-21T06:31:13;98171.19;;;8.03;100.00
141;BME280;65;48.778;9.160;2023-04-21T06:34:03;98175.53;;;8.37;100.00
141;BME280;65;48.778;9.160;2023-04-21T06:36:49;98170.69;;;8.61;100.00
141;BME280;65;48.778;9.160;2023-04-21T06:39:35;98172.41;;;8.46;99.20
141;BME280;65;48.778;9.160;2023-04-21T06:42:20;98170.22;;;8.21;100.00
141;BME280;65;48.778;9.160;2023-04-21T06:45:06;98170.50;;;8.00;100.00
141;BME280;65;48.778;9.160;2023-04-21T06:47:52;98168.63;;;8.02;100.00
141;BME280;65;48.778;9.160;2023-04-21T06:50:38;98167.66;;;8.20;100.00
141;BME280;65;48.778;9.160;2023-04-21T06:53:24;98165.75;;;7.73;100.00
141;BME280;65;48.778;9.160;2023-04-21T06:56:10;98170.00;;;8.09;100.00
141;BME280;65;48.778;9.160;2023-04-21T06:58:55;98163.94;;;8.24;100.00
141;BME280;65;48.778;9.160;2023-04-21T07:01:41;98166.81;;;8.19;100.00
141;BME280;65;48.778;9.160;2023-04-21T07:04:27;98163.31;;;8.52;100.00
141;BME280;65;48.778;9.160;2023-04-21T07:07:16;98169.41;;;9.00;100.00
141;BME280;65;48.778;9.160;2023-04-21T07:10:02;98163.19;;;9.01;100.00
141;BME280;65;48.778;9.160;2023-04-21T07:12:48;98158.31;;;9.69;97.57
141;BME280;65;48.778;9.160;2023-04-21T07:15:33;98155.72;;;9.83;92.37
141;BME280;65;48.778;9.160;2023-04-21T07:18:19;98152.75;;;9.73;93.44
141;BME280;65;48.778;9.160;2023-04-21T07:21:05;98154.53;;;9.73;95.57
141;BME280;65;48.778;9.160;2023-04-21T07:23:50;98146.84;;;9.84;94.92
141;BME280;65;48.778;9.160;2023-04-21T07:26:36;98156.38;;;10.15;90.82
141;BME280;65;48.778;9.160;2023-04-21T07:29:22;98153.75;;;10.29;93.33
141;BME280;65;48.778;9.160;2023-04-21T07:32:08;98157.28;;;10.71;90.41
141;BME280;65;48.778;9.160;2023-04-21T07:34:53;98146.16;;;10.93;87.08
141;BME280;65;48.778;9.160;2023-04-21T07:37:39;98135.38;;;10.96;88.18
141;BME280;65;48.778;9.160;2023-04-21T07:40:25;98144.63;;;11.03;83.53
141;BME280;65;48.778;9.160;2023-04-21T07:43:11;98136.50;;;11.71;79.88
141;BME280;65;48.778;9.160;2023-04-21T07:45:57;98141.25;;;12.42;75.78
141;BME280;65;48.778;9.160;2023-04-21T07:48:43;98138.25;;;13.20;69.81
141;BME280;65;48.778;9.160;2023-04-21T07:51:30;98131.66;;;13.83;67.57
141;BME280;65;48.778;9.160;2023-04-21T07:54:16;98137.09;;;13.81;69.04
141;BME280;65;48.778;9.160;2023-04-21T07:57:07;98137.19;;;14.60;63.93
141;BME280;65;48.778;9.160;2023-04-21T07:59:54;98131.03;;;15.34;65.79
141;BME280;65;48.778;9.160;2023-04-21T08:02:40;98124.16;;;16.15;64.35
141;BME280;65;48.778;9.160;2023-04-21T08:05:26;98128.47;;;18.49;51.01
141;BME280;65;48.778;9.160;2023-04-21T08:08:11;98116.66;;;19.24;48.07
141;BME280;65;48.778;9.160;2023-04-21T08:10:57;98115.13;;;19.40;47.74
141;BME280;65;48.778;9.160;2023-04-21T08:13:43;98128.44;;;18.31;52.93
141;BME280;65;48.778;9.160;2023-04-21T08:16:29;98113.63;;;20.25;47.48
141;BME280;65;48.778;9.160;2023-04-21T08:19:14;98121.81;;;17.79;49.47
141;BME280;65;48.778;9.160;2023-04-21T08:22:00;98117.28;;;17.99;53.43
141;BME280;65;48.778;9.160;2023-04-21T08:24:46;98107.69;;;20.21;44.48
141;BME280;65;48.778;9.160;2023-04-21T08:27:31;98117.78;;;20.87;48.28
141;BME280;65;48.778;9.160;2023-04-21T08:30:19;98116.53;;;22.85;42.80
141;BME280;65;48.778;9.160;2023-04-21T08:33:06;98108.34;;;21.82;44.23
141;BME280;65;48.778;9.160;2023-04-21T08:35:52;98106.41;;;23.72;37.97
141;BME280;65;48.778;9.160;2023-04-21T08:38:40;98095.00;;;23.99;35.87
141;BME280;65;48.778;9.160;2023-04-21T08:41:26;98100.81;;;22.96;42.59
141;BME280;65;48.778;9.160;2023-04-21T08:44:12;98091.06;;;23.87;36.06
141;BME280;65;48.778;9.160;2023-04-21T08:46:58;98089.69;;;24.20;38.46
141;BME280;65;48.778;9.160;2023-04-21T08:49:45;98099.09;;;24.33;37.10
141;BME280;65;48.778;9.160;2023-04-21T08:52:34;98103.78;;;21.99;39.94
141;BME280;65;48.778;9.160;2023-04-21T08:55:27;98099.66;;;23.45;37.60
141;BME280;65;48.778;9.160;2023-04-21T08:58:13;98103.19;;;22.91;38.56
141;BME280;65;48.778;9.160;2023-04-21T09:00:59;98107.97;;;22.26;38.97
141;BME280;65;48.778;9.160;2023-04-21T09:03:45;98107.34;;;22.07;39.40
141;BME280;65;48.778;9.160;2023-04-21T09:06:40;98102.66;;;22.49;38.97
141;BME280;65;48.778;9.160;2023-04-21T09:09:30;98094.41;;;23.89;36.89
141;BME280;65;48.778;9.160;2023-04-21T09:12:17;98096.25;;;23.28;37.65
141;BME280;65;48.778;9.160;2023-04-21T09:15:09;98097.44;;;22.55;42.15
141;BME280;65;48.778;9.160;2023-04-21T09:17:55;98084.25;;;24.43;36.20
141;BME280;65;48.778;9.160;2023-04-21T09:20:42;98079.69;;;23.54;40.50
141;BME280;65;48.778;9.160;2023-04-21T09:23:28;98086.28;;;24.71;36.36
141;BME280;65;48.778;9.160;2023-04-21T09:26:16;98080.66;;;24.13;36.43
141;BME280;65;48.778;9.160;2023-04-21T09:29:04;98078.84;;;23.53;36.54
141;BME280;65;48.778;9.160;2023-04-21T09:31:51;98077.13;;;23.15;38.06
141;BME280;65;48.778;9.160;2023-04-21T09:34:40;98077.94;;;22.45;41.85
141;BME280;65;48.778;9.160;2023-04-21T09:37:37;98071.91;;;20.80;43.55
141;BME280;65;48.778;9.160;2023-04-21T09:40:23;98070.47;;;22.63;41.38
141;BME280;65;48.778;9.160;2023-04-21T09:43:09;98069.06;;;22.76;41.53
141;BME280;65;48.778;9.160;2023-04-21T09:45:57;98067.91;;;24.22;37.41
141;BME280;65;48.778;9.160;2023-04-21T09:48:44;98071.97;;;25.92;33.52
141;BME280;65;48.778;9.160;2023-04-21T09:51:30;98065.66;;;25.84;34.25
141;BME280;65;48.778;9.160;2023-04-21T09:54:18;98066.25;;;23.69;37.96
141;BME280;65;48.778;9.160;2023-04-21T09:57:05;98067.72;;;25.40;35.04
141;BME280;65;48.778;9.160;2023-04-21T10:00:01;98064.81;;;26.81;33.68
141;BME280;65;48.778;9.160;2023-04-21T10:02:50;98067.56;;;26.46;33.36
141;BME280;65;48.778;9.160;2023-04-21T10:05:37;98054.78;;;26.34;32.90
141;BME280;65;48.778;9.160;2023-04-21T10:08:23;98055.00;;;26.04;36.05
141;BME280;65;48.778;9.160;2023-04-21T10:11:09;98042.34;;;26.53;33.01
141;BME280;65;48.778;9.160;2023-04-21T10:13:55;98028.88;;;27.47;33.11
141;BME280;65;48.778;9.160;2023-04-21T10:16:41;98030.16;;;27.64;29.50
141;BME280;65;48.778;9.160;2023-04-21T10:19:27;98032.41;;;26.60;32.31
141;BME280;65;48.778;9.160;2023-04-21T10:22:13;98024.13;;;25.71;33.51
141;BME280;65;48.778;9.160;2023-04-21T10:25:01;98026.78;;;26.61;30.98
141;BME280;65;48.778;9.160;2023-04-21T10:27:47;98023.72;;;26.84;31.13
141;BME280;65;48.778;9.160;2023-04-21T10:30:33;98027.88;;;25.48;33.67
141;BME280;65;48.778;9.160;2023-04-21T10:33:22;98026.81;;;26.74;31.26
141;BME280;65;48.778;9.160;2023-04-21T10:36:10;98013.03;;;27.70;30.14
141;BME280;65;48.778;9.160;2023-04-21T10:39:00;98020.53;;;27.61;32.71
141;BME280;65;48.778;9.160;2023-04-21T10:41:48;98019.19;;;25.81;34.69
141;BME280;65;48.778;9.160;2023-04-21T10:44:34;98016.84;;;24.71;34.29
141;BME280;65;48.778;9.160;2023-04-21T10:47:34;98019.09;;;26.71;32.02
141;BME280;65;48.778;9.160;2023-04-21T10:50:30;98017.13;;;26.52;33.10
141;BME280;65;48.778;9.160;2023-04-21T10:53:16;98019.72;;;25.70;34.02
141;BME280;65;48.778;9.160;2023-04-21T10:56:03;98004.28;;;24.19;35.48
141;BME280;65;48.778;9.160;2023-04-21T10:58:49;98008.50;;;24.87;35.66
141;BME280;65;48.778;9.160;2023-04-21T11:01:39;98000.78;;;26.87;30.88
141;BME280;65;48.778;9.160;2023-04-21T11:04:24;98003.31;;;26.06;34.85
141;BME280;65;48.778;9.160;2023-04-21T11:07:29;98000.25;;;27.51;31.57
141;BME280;65;48.778;9.160;2023-04-21T11:10:15;98000.47;;;27.56;32.67
141;BME280;65;48.778;9.160;2023-04-21T11:13:01;97993.28;;;28.41;29.19
141;BME280;65;48.778;9.160;2023-04-21T11:15:58;98000.84;;;27.13;32.61
141;BME280;65;48.778;9.160;2023-04-21T11:18:44;97998.38;;;27.18;31.21
141;BME280;65;48.778;9.160;2023-04-21T11:21:30;97997.00;;;26.74;31.58
141;BME280;65;48.778;9.160;2023-04-21T11:24:16;97988.78;;;27.22;31.99
141;BME280;65;48.778;9.160;2023-04-21T11:27:01;97982.94;;;27.91;32.58
141;BME280;65;48.778;9.160;2023-04-21T11:29:48;97987.28;;;28.06;33.31
141;BME280;65;48.778;9.160;2023-04-21T11:32:34;97981.19;;;28.10;32.88
141;BME280;65;48.778;9.160;2023-04-21T11:35:20;97981.66;;;28.65;29.14
141;BME280;65;48.778;9.160;2023-04-21T11:38:06;97979.59;;;27.56;31.26
141;BME280;65;48.778;9.160;2023-04-21T11:40:51;97982.50;;;27.41;33.31
141;BME280;65;48.778;9.160;2023-04-21T11:43:38;97971.03;;;27.79;30.56
141;BME280;65;48.778;9.160;2023-04-21T11:46:24;97965.59;;;27.59;31.76
141;BME280;65;48.778;9.160;2023-04-21T11:49:11;97954.53;;;27.21;31.35
141;BME280;65;48.778;9.160;2023-04-21T11:51:57;97959.13;;;27.27;32.71
141;BME280;65;48.778;9.160;2023-04-21T11:54:43;97952.19;;;27.97;31.68
141;BME280;65;48.778;9.160;2023-04-21T11:57:31;97958.28;;;27.66;31.35
141;BME280;65;48.778;9.160;2023-04-21T12:00:17;97968.53;;;27.18;31.35
141;BME280;65;48.778;9.160;2023-04-21T12:03:07;97952.66;;;27.61;33.93
141;BME280;65;48.778;9.160;2023-04-21T12:05:55;97956.84;;;28.48;30.46
141;BME280;65;48.778;9.160;2023-04-21T12:08:42;97952.09;;;29.38;28.94
141;BME280;65;48.778;9.160;2023-04-21T12:11:29;97953.69;;;27.67;32.17
141;BME280;65;48.778;9.160;2023-04-21T12:14:16;97954.38;;;25.23;36.69
141;BME280;65;48.778;9.160;2023-04-21T12:17:05;97958.91;;;26.41;33.02
141;BME280;65;48.778;9.160;2023-04-21T12:19:51;97951.31;;;26.85;33.24
141;BME280;65;48.778;9.160;2023-04-21T12:22:36;97944.06;;;27.05;33.59
141;BME280;65;48.778;9.160;2023-04-21T12:25:22;97943.25;;;27.51;31.72
141;BME280;65;48.778;9.160;2023-04-21T12:28:09;97938.19;;;28.00;31.39
141;BME280;65;48.778;9.160;2023-04-21T12:30:55;97943.44;;;27.56;31.05
141;BME280;65;48.778;9.160;2023-04-21T12:33:41;97939.66;;;25.61;35.44
141;BME280;65;48.778;9.160;2023-04-21T12:36:26;97924.94;;;26.52;33.21
141;BME280;65;48.778;9.160;2023-04-21T12:39:12;97922.53;;;26.77;32.37
141;BME280;65;48.778;9.160;2023-04-21T12:41:59;97913.13;;;26.73;33.28
141;BME280;65;48.778;9.160;2023-04-21T12:44:46;97913.75;;;26.68;35.46
141;BME280;65;48.778;9.160;2023-04-21T12:47:32;97905.22;;;25.76;34.95
141;BME280;65;48.778;9.160;2023-04-21T12:50:18;97910.97;;;25.38;35.61
141;BME280;65;48.778;9.160;2023-04-21T12:53:03;97912.00;;;24.16;37.58
141;BME280;65;48.778;9.160;2023-04-21T12:55:51;97905.53;;;23.66;39.32
141;BME280;65;48.778;9.160;2023-04-21T12:58:37;97903.44;;;22.63;40.80
141;BME280;65;48.778;9.160;2023-04-21T13:01:23;97896.41;;;22.77;40.72
141;BME280;65;48.778;9.160;2023-04-21T13:04:08;97906.06;;;22.18;43.35
141;BME280;65;48.778;9.160;2023-04-21T13:06:54;97907.25;;;23.29;40.88
141;BME280;65;48.778;9.160;2023-04-21T13:09:40;97909.88;;;23.00;41.55
141;BME280;65;48.778;9.160;2023-04-21T13:12:26;97901.84;;;23.82;40.06
141;BME280;65;48.778;9.160;2023-04-21T13:15:12;97904.56;;;24.33;38.26
141;BME280;65;48.778;9.160;2023-04-21T13:17:57;97901.38;;;23.78;39.71
141;BME280;65;48.778;9.160;2023-04-21T13:20:43;97888.41;;;22.69;41.37
141;BME280;65;48.778;9.160;2023-04-21T13:23:29;97883.25;;;23.20;41.09
141;BME280;65;48.778;9.160;2023-04-21T13:26:15;97889.75;;;21.72;41.75
141;BME280;65;48.778;9.160;2023-04-21T13:29:02;97872.09;;;21.77;41.97
141;BME280;65;48.778;9.160;2023-04-21T13:31:48;97876.81;;;21.75;44.42
141;BME280;65;48.778;9.160;2023-04-21T13:34:34;97881.69;;;22.65;41.78
141;BME280;65;48.778;9.160;2023-04-21T13:37:20;97872.97;;;22.63;42.45
141;BME280;65;48.778;9.160;2023-04-21T13:40:08;97881.31;;;22.45;43.96
141;BME280;65;48.778;9.160;2023-04-21T13:42:54;97877.06;;;22.51;41.00
141;BME280;65;48.778;9.160;2023-04-21T13:45:40;97875.75;;;22.24;43.54
141;BME280;65;48.778;9.160;2023-04-21T13:48:26;97872.72;;;22.72;41.67
141;BME280;65;48.778;9.160;2023-04-21T13:51:13;97874.34;;;22.82;40.58
141;BME280;65;48.778;9.160;2023-04-21T13:53:59;97865.69;;;22.40;41.02
141;BME280;65;48.778;9.160;2023-04-21T13:56:44;97868.88;;;22.67;41.63
141;BME280;65;48.778;9.160;2023-04-21T13:59:30;97868.59;;;23.66;38.32
141;BME280;65;48.778;9.160;2023-04-21T14:02:16;97855.66;;;24.27;39.29
141;BME280;65;48.778;9.160;2023-04-21T14:05:02;97855.28;;;23.94;39.06
141;BME280;65;48.778;9.160;2023-04-21T14:07:49;97844.16;;;24.04;39.79
141;BME280;65;48.778;9.160;2023-04-21T14:10:34;97842.31;;;24.26;38.01
141;BME280;65;48.778;9.160;2023-04-21T14:13:22;97835.00;;;23.69;37.22
141;BME280;65;48.778;9.160;2023-04-21T14:16:08;97832.41;;;23.61;37.30
141;BME280;65;48.778;9.160;2023-04-21T14:18:54;97827.84;;;23.61;39.21
141;BME280;65;48.778;9.160;2023-04-21T14:21:40;97824.88;;;23.27;40.27
141;BME280;65;48.778;9.160;2023-04-21T14:24:26;97815.06;;;22.82;40.07
141;BME280;65;48.778;9.160;2023-04-21T14:27:14;97822.94;;;21.53;41.62
141;BME280;65;48.778;9.160;2023-04-21T14:30:00;97810.72;;;21.42;43.12
141;BME280;65;48.778;9.160;2023-04-21T14:32:46;97803.19;;;21.68;43.46
141;BME280;65;48.778;9.160;2023-04-21T14:35:32;97795.50;;;21.88;44.93
141;BME280;65;48.778;9.160;2023-04-21T14:38:19;97793.63;;;21.97;41.97
141;BME280;65;48.778;9.160;2023-04-21T14:41:04;97789.28;;;21.88;40.40
141;BME280;65;48.778;9.160;2023-04-21T14:43:50;97786.53;;;21.73;42.19
141;BME280;65;48.778;9.160;2023-04-21T14:46:38;97788.75;;;21.92;41.03
141;BME280;65;48.778;9.160;2023-04-21T14:49:24;97803.56;;;21.65;41.78
141;BME280;65;48.778;9.160;2023-04-21T14:52:09;97801.03;;;21.16;40.50
141;BME280;65;48.778;9.160;2023-04-21T14:54:56;97800.44;;;20.74;39.92
141;BME280;65;48.778;9.160;2023-04-21T14:57:41;97795.69;;;19.86;42.47
141;BME280;65;48.778;9.160;2023-04-21T15:00:27;97791.31;;;19.85;42.68
141;BME280;65;48.778;9.160;2023-04-21T15:03:14;97794.75;;;19.62;41.86
141;BME280;65;48.778;9.160;2023-04-21T15:05:59;97783.56;;;19.24;43.70
141;BME280;65;48.778;9.160;2023-04-21T15:08:45;97789.13;;;19.39;43.20
141;BME280;65;48.778;9.160;2023-04-21T15:11:31;97789.31;;;19.37;43.04
141;BME280;65;48.778;9.160;2023-04-21T15:14:16;97786.66;;;19.45;43.39
141;BME280;65;48.778;9.160;2023-04-21T15:17:02;97791.97;;;19.03;44.03
141;BME280;65;48.778;9.160;2023-04-21T15:19:48;97785.06;;;18.92;45.08
141;BME280;65;48.778;9.160;2023-04-21T15:22:34;97779.09;;;19.07;45.75
141;BME280;65;48.778;9.160;2023-04-21T15:25:20;97781.94;;;19.05;45.70
141;BME280;65;48.778;9.160;2023-04-21T15:28:06;97783.03;;;19.20;45.96
141;BME280;65;48.778;9.160;2023-04-21T15:30:53;97784.34;;;19.08;47.02
141;BME280;65;48.778;9.160;2023-04-21T15:33:38;97784.44;;;18.73;46.98
141;BME280;65;48.778;9.160;2023-04-21T15:36:24;97781.19;;;18.87;47.36
141;BME280;65;48.778;9.160;2023-04-21T15:39:11;97775.34;;;18.91;47.57
141;BME280;65;48.778;9.160;2023-04-21T15:41:58;97782.06;;;18.95;47.82
141;BME280;65;48.778;9.160;2023-04-21T15:44:44;97777.19;;;18.47;48.46